Terminal Aerodrome Forecast
Issued by NWS

Home | Current Version | Previous Version | Graphics & Text | Print | Product List | Glossary On
Versions: 1 2 3 4 5 6 7 8 9 10 11 12 13 14 15 16 17 18 19
474
FTUS43 KUNR 240520
TAFGCC
TAF
KGCC 240520Z 2406/2506 27008KT P6SM BKN110
     FM241000 34013KT P6SM BKN010 BKN060
     FM241600 33009KT P6SM BKN100
     FM250200 05010KT P6SM -SHRA OVC015=

USA.gov is the U.S. government's official web portal to all federal, state and local government web resources and services.